Time;durP1;ratioP1;P1;durP2;ratioP2;P2;SDS_P1;SDS_P2;PMS_P1;PMS_P2;Temp;Humidity;BMP_temperature;BMP_pressure;BME280_temperature;BME280_humidity;BME280_pressure;Samples;Min_cycle;Max_cycle;Signal;HPM_P1;HPM_P2
2023/07/22 00:01:23;;;;;;;2.45;1.52;;;26.70;41.00;;;;;;6138665;29;20523;-79
2023/07/22 00:04:26;;;;;;;1.65;1.33;;;26.70;40.90;;;;;;6138437;29;20043;-79
2023/07/22 00:07:26;;;;;;;4.68;1.63;;;26.70;40.80;;;;;;6137502;28;20035;-79
2023/07/22 00:10:27;;;;;;;1.50;1.10;;;26.70;40.80;;;;;;6122207;29;20479;-78
2023/07/22 00:13:29;;;;;;;3.13;1.58;;;26.70;40.80;;;;;;6154306;29;20048;-78
2023/07/22 00:16:29;;;;;;;1.50;1.08;;;26.70;40.80;;;;;;6137256;29;20443;-79
2023/07/22 00:19:30;;;;;;;3.65;1.42;;;26.70;40.70;;;;;;6154428;28;20038;-79
2023/07/22 00:22:31;;;;;;;4.18;1.40;;;26.70;40.60;;;;;;6120054;29;20062;-79
2023/07/22 00:25:32;;;;;;;2.47;1.70;;;26.70;40.60;;;;;;6135370;28;20042;-79
2023/07/22 00:28:33;;;;;;;3.72;1.55;;;26.70;40.50;;;;;;6136541;29;20039;-79
2023/07/22 00:31:34;;;;;;;12.57;1.83;;;26.60;40.50;;;;;;6136472;29;20171;-79
2023/07/22 00:34:38;;;;;;;2.45;1.73;;;26.60;40.50;;;;;;6122411;29;20118;-81
2023/07/22 00:37:39;;;;;;;2.00;1.35;;;26.40;40.50;;;;;;6136290;29;20058;-79
2023/07/22 00:40:40;;;;;;;2.33;1.33;;;26.50;40.60;;;;;;6120546;29;20047;-77
2023/07/22 00:43:40;;;;;;;2.13;1.38;;;26.50;40.50;;;;;;6121452;29;20028;-79
2023/07/22 00:46:41;;;;;;;2.10;1.50;;;26.40;40.40;;;;;;6153985;28;20411;-78
2023/07/22 00:49:44;;;;;;;5.00;1.42;;;26.40;40.40;;;;;;6136033;29;20470;-78
2023/07/22 00:52:45;;;;;;;4.35;1.75;;;26.50;40.50;;;;;;6121980;29;20082;-79
2023/07/22 00:55:46;;;;;;;3.45;1.30;;;26.40;40.40;;;;;;6136098;28;20458;-79
2023/07/22 00:58:47;;;;;;;3.25;1.40;;;26.40;40.50;;;;;;6155391;29;20130;-78
2023/07/22 01:01:48;;;;;;;4.93;1.50;;;26.40;40.50;;;;;;6137837;29;20070;-78
2023/07/22 01:04:50;;;;;;;2.67;1.40;;;26.40;40.60;;;;;;6153356;29;20035;-80
2023/07/22 01:08:05;;;;;;;3.20;1.77;;;26.30;40.60;;;;;;6136763;28;20053;-79
2023/07/22 01:11:07;;;;;;;8.23;1.45;;;26.30;40.60;;;;;;6135822;29;20042;-78
2023/07/22 01:14:08;;;;;;;2.17;1.10;;;26.30;40.60;;;;;;6151121;29;20364;-79
2023/07/22 01:17:11;;;;;;;2.83;1.40;;;26.30;40.70;;;;;;6150828;28;20038;-78
2023/07/22 01:20:13;;;;;;;3.42;1.45;;;26.30;40.70;;;;;;6154238;28;20058;-77
2023/07/22 01:23:15;;;;;;;2.95;1.60;;;26.20;40.50;;;;;;6127969;29;20110;-79
2023/07/22 01:26:16;;;;;;;7.13;1.75;;;26.20;40.50;;;;;;6151836;28;20032;-78
2023/07/22 01:29:17;;;;;;;2.28;1.30;;;26.20;40.60;;;;;;6121547;29;20035;-79
2023/07/22 01:32:19;;;;;;;4.72;2.00;;;26.20;40.60;;;;;;6154196;28;20039;-79
2023/07/22 01:35:20;;;;;;;2.08;1.42;;;26.20;40.60;;;;;;6140767;28;20035;-79
2023/07/22 01:38:21;;;;;;;1.55;1.30;;;26.20;40.60;;;;;;6149569;29;20041;-78
2023/07/22 01:41:23;;;;;;;2.55;1.20;;;26.10;40.60;;;;;;6151874;29;20038;-78
2023/07/22 01:44:24;;;;;;;2.83;1.52;;;26.10;40.60;;;;;;6153849;28;20031;-80
2023/07/22 01:47:24;;;;;;;3.10;1.67;;;26.10;40.60;;;;;;6152282;28;20031;-77
2023/07/22 01:50:25;;;;;;;2.95;1.30;;;26.10;40.60;;;;;;6149212;29;20468;-79
2023/07/22 01:53:26;;;;;;;1.75;1.27;;;26.00;40.70;;;;;;6153214;29;20071;-78
2023/07/22 01:56:27;;;;;;;2.40;1.55;;;26.00;40.70;;;;;;6153352;28;20059;-79
2023/07/22 01:59:28;;;;;;;3.80;1.23;;;26.00;40.80;;;;;;6151168;29;20051;-78
2023/07/22 02:02:31;;;;;;;5.03;1.95;;;26.00;40.90;;;;;;6136780;29;20027;-79
2023/07/22 02:05:32;;;;;;;5.90;1.38;;;25.90;40.90;;;;;;6136947;28;20081;-78
2023/07/22 02:08:33;;;;;;;1.95;1.40;;;26.00;41.00;;;;;;6152489;29;20081;-79
2023/07/22 02:11:38;;;;;;;3.35;1.52;;;25.90;41.00;;;;;;6151347;29;20387;-78
2023/07/22 02:14:39;;;;;;;2.78;1.52;;;25.90;41.10;;;;;;6150506;29;20479;-79
2023/07/22 02:17:40;;;;;;;4.53;1.80;;;25.80;41.10;;;;;;6151484;28;20086;-78
2023/07/22 02:20:45;;;;;;;2.80;1.70;;;25.80;41.20;;;;;;6155301;29;20023;-77
2023/07/22 02:23:46;;;;;;;4.43;1.90;;;25.70;41.10;;;;;;6120325;28;20054;-79
2023/07/22 02:26:47;;;;;;;2.45;1.58;;;25.70;41.20;;;;;;6134728;28;20036;-78
2023/07/22 02:29:48;;;;;;;8.98;1.77;;;25.70;41.10;;;;;;6117784;29;20150;-79
2023/07/22 02:32:48;;;;;;;3.75;1.58;;;25.70;41.10;;;;;;6119785;29;20063;-77
2023/07/22 02:35:49;;;;;;;1.98;1.25;;;25.70;41.10;;;;;;6137868;28;20355;-78
2023/07/22 02:38:50;;;;;;;4.05;1.65;;;25.80;41.10;;;;;;6156478;28;20449;-79
2023/07/22 02:41:51;;;;;;;4.85;1.65;;;25.70;41.10;;;;;;6124567;29;20035;-79
2023/07/22 02:44:52;;;;;;;3.63;1.48;;;25.70;41.10;;;;;;6139637;29;20094;-79
2023/07/22 02:47:53;;;;;;;4.60;1.58;;;25.70;41.10;;;;;;6116847;29;20101;-79
2023/07/22 02:50:55;;;;;;;3.53;1.30;;;25.70;41.10;;;;;;6136069;29;20046;-78
2023/07/22 02:53:56;;;;;;;3.10;1.30;;;25.60;41.10;;;;;;6139503;29;20046;-79
2023/07/22 02:56:56;;;;;;;4.97;1.45;;;25.70;41.10;;;;;;6139774;29;20035;-79
2023/07/22 02:59:57;;;;;;;2.70;1.33;;;25.60;41.10;;;;;;6125205;29;20064;-79
2023/07/22 03:03:01;;;;;;;3.50;2.03;;;25.50;41.00;;;;;;6157114;29;20051;-78
2023/07/22 03:06:04;;;;;;;2.85;1.33;;;25.50;41.00;;;;;;6141586;28;20042;-79
2023/07/22 03:09:05;;;;;;;2.88;1.52;;;25.50;41.00;;;;;;6129034;29;20509;-78
2023/07/22 03:15:33;;;;;;;5.32;1.40;;;25.40;41.00;;;;;;6082230;29;20056;-78
2023/07/22 03:18:38;;;;;;;3.03;1.58;;;25.40;41.10;;;;;;6084006;29;20040;-78
2023/07/22 03:21:39;;;;;;;4.00;1.73;;;25.30;41.40;;;;;;6068776;29;20200;-78
2023/07/22 03:24:40;;;;;;;4.32;1.60;;;25.30;41.60;;;;;;6068271;29;20037;-79
2023/07/22 03:27:44;;;;;;;5.05;1.42;;;25.20;42.10;;;;;;6069954;29;20047;-78
2023/07/22 03:30:45;;;;;;;4.65;1.58;;;25.10;42.40;;;;;;6077797;29;20053;-78
2023/07/22 03:33:46;;;;;;;2.65;1.30;;;25.10;42.70;;;;;;6078318;29;20060;-80
2023/07/22 03:36:47;;;;;;;5.65;1.75;;;25.00;43.00;;;;;;6089712;29;20092;-79
2023/07/22 03:39:48;;;;;;;2.70;1.48;;;25.00;43.30;;;;;;6098239;29;20218;-79
2023/07/22 03:42:50;;;;;;;3.40;1.77;;;24.90;43.60;;;;;;6108194;29;20028;-80
2023/07/22 03:45:51;;;;;;;3.70;1.73;;;24.80;43.90;;;;;;6102481;29;20044;-79
2023/07/22 03:48:52;;;;;;;2.10;1.35;;;24.80;44.10;;;;;;6088172;29;20047;-79
2023/07/22 03:51:53;;;;;;;2.30;1.60;;;24.70;44.10;;;;;;6123462;28;20099;-76
2023/07/22 03:54:53;;;;;;;2.35;1.35;;;24.70;44.20;;;;;;6138819;29;20035;-79
2023/07/22 03:57:57;;;;;;;5.10;1.73;;;24.60;44.30;;;;;;6137961;29;20404;-79
2023/07/22 04:00:57;;;;;;;2.38;1.58;;;24.60;44.60;;;;;;6135756;29;20728;-77
2023/07/22 04:03:58;;;;;;;2.45;1.50;;;24.40;44.80;;;;;;6142696;29;20133;-78
2023/07/22 04:06:59;;;;;;;5.75;1.30;;;24.80;45.00;;;;;;6135006;29;20375;-77
2023/07/22 04:10:04;;;;;;;3.83;2.00;;;24.30;45.00;;;;;;6119171;28;20042;-78
2023/07/22 04:13:09;;;;;;;6.25;1.40;;;25.20;46.30;;;;;;6133915;28;20102;-77
2023/07/22 04:16:09;;;;;;;4.10;1.65;;;24.30;45.20;;;;;;6133741;29;20028;-78
2023/07/22 04:19:10;;;;;;;7.70;1.75;;;24.30;45.40;;;;;;6131557;29;20522;-78
2023/07/22 04:22:11;;;;;;;1.58;1.15;;;24.20;45.50;;;;;;6153583;28;20031;-77
2023/07/22 04:28:15;;;;;;;3.97;1.98;;;24.00;45.50;;;;;;6120476;29;20434;-79
2023/07/22 04:31:16;;;;;;;3.33;1.40;;;24.00;45.50;;;;;;6145613;29;20082;-75
2023/07/22 04:34:17;;;;;;;2.75;1.48;;;24.00;45.50;;;;;;6128685;29;20027;-76
2023/07/22 04:37:20;;;;;;;3.78;1.60;;;23.90;45.50;;;;;;6125189;28;20380;-80
2023/07/22 04:40:21;;;;;;;3.88;1.73;;;23.90;45.30;;;;;;6114393;28;20032;-78
2023/07/22 04:43:22;;;;;;;2.70;1.48;;;24.00;45.30;;;;;;6132564;29;20063;-77
2023/07/22 04:46:23;;;;;;;3.35;1.70;;;23.90;45.20;;;;;;6131353;28;20385;-78
2023/07/22 04:49:24;;;;;;;3.45;1.50;;;24.00;45.20;;;;;;6132616;29;20090;-77
2023/07/22 04:52:25;;;;;;;4.28;2.20;;;24.00;45.00;;;;;;6136026;29;20023;-76
2023/07/22 04:55:29;;;;;;;3.28;1.60;;;24.00;44.90;;;;;;6108808;29;20501;-77
2023/07/22 04:58:30;;;;;;;3.53;1.70;;;24.10;44.90;;;;;;6104906;29;20035;-76
2023/07/22 05:01:31;;;;;;;2.33;1.30;;;24.10;44.80;;;;;;6105084;29;20043;-77
2023/07/22 05:04:35;;;;;;;4.68;2.00;;;24.20;44.80;;;;;;6086688;29;20038;-79
2023/07/22 05:07:36;;;;;;;3.58;1.88;;;24.20;44.80;;;;;;6179255;23;20047;-77
2023/07/22 05:10:37;;;;;;;3.83;1.40;;;24.30;44.90;;;;;;6145948;29;20058;-76
2023/07/22 05:13:38;;;;;;;2.45;1.77;;;24.30;44.80;;;;;;6148584;28;20053;-77
2023/07/22 05:16:39;;;;;;;4.40;2.22;;;24.40;44.80;;;;;;6131127;28;20109;-78
2023/07/22 05:19:43;;;;;;;4.85;2.03;;;24.50;44.70;;;;;;6128983;29;20043;-78
2023/07/22 05:22:44;;;;;;;2.97;1.52;;;24.50;44.70;;;;;;6123047;29;20042;-77
2023/07/22 05:25:54;;;;;;;5.82;1.45;;;24.60;44.60;;;;;;6112213;29;20036;-79
2023/07/22 05:28:55;;;;;;;4.38;1.67;;;24.60;44.50;;;;;;6114268;29;20054;-77
2023/07/22 05:31:55;;;;;;;3.00;1.92;;;24.60;44.40;;;;;;6113978;29;20032;-78
2023/07/22 05:34:56;;;;;;;5.05;1.98;;;24.70;44.40;;;;;;6112230;29;20028;-77
2023/07/22 05:38:03;;;;;;;4.13;1.77;;;24.70;44.30;;;;;;6129733;29;20054;-79
2023/07/22 05:41:04;;;;;;;4.00;1.73;;;24.70;44.20;;;;;;6096783;29;20140;-79
2023/07/22 05:44:05;;;;;;;2.88;1.65;;;24.70;44.10;;;;;;6128284;29;20039;-78
2023/07/22 05:47:06;;;;;;;3.05;1.60;;;24.70;43.90;;;;;;6128271;29;20043;-80
2023/07/22 05:50:08;;;;;;;10.15;1.80;;;24.70;44.00;;;;;;6146330;29;20717;-79
2023/07/22 05:53:11;;;;;;;4.88;1.92;;;24.70;44.10;;;;;;6131923;29;20535;-79
2023/07/22 05:56:12;;;;;;;8.48;1.58;;;24.70;44.20;;;;;;6130423;29;20031;-79
2023/07/22 05:59:13;;;;;;;5.80;1.92;;;24.70;44.70;;;;;;6118222;29;20080;-80
2023/07/22 06:02:14;;;;;;;10.18;1.88;;;24.80;44.10;;;;;;6134349;29;20187;-81
2023/07/22 06:05:16;;;;;;;3.33;1.65;;;24.90;44.00;;;;;;6120701;29;20035;-79
2023/07/22 06:08:20;;;;;;;5.60;2.00;;;24.90;43.90;;;;;;6141894;29;20031;-80
2023/07/22 06:11:28;;;;;;;5.90;1.50;;;24.80;43.70;;;;;;6125267;29;20044;-81
2023/07/22 06:14:32;;;;;;;3.58;1.58;;;25.10;43.70;;;;;;6101926;29;20035;-79
2023/07/22 06:17:42;;;;;;;2.65;1.55;;;25.10;43.60;;;;;;6116555;29;20694;-80
2023/07/22 06:20:46;;;;;;;4.22;1.50;;;25.20;44.30;;;;;;6122344;29;20047;-79
2023/07/22 06:23:47;;;;;;;3.95;1.75;;;25.20;43.60;;;;;;6120619;29;20031;-79
2023/07/22 06:26:51;;;;;;;3.63;1.63;;;25.10;43.60;;;;;;6105470;29;20097;-80
2023/07/22 06:29:55;;;;;;;2.72;1.63;;;25.20;43.60;;;;;;6138766;29;20043;-79
2023/07/22 06:33:19;;;;;;;7.03;1.90;;;25.20;43.60;;;;;;6121728;29;20039;-79
2023/07/22 06:36:29;;;;;;;3.33;1.63;;;25.20;43.60;;;;;;6106883;29;20039;-79
2023/07/22 06:39:33;;;;;;;2.63;1.50;;;24.60;43.10;;;;;;6120022;29;20239;-80
2023/07/22 06:42:38;;;;;;;11.48;1.80;;;25.40;43.30;;;;;;6123502;29;20083;-78
2023/07/22 06:45:46;;;;;;;3.47;1.73;;;25.50;43.30;;;;;;6139656;29;20389;-78
2023/07/22 06:48:47;;;;;;;2.85;1.65;;;25.60;43.20;;;;;;6123668;29;20050;-79
2023/07/22 06:51:48;;;;;;;3.88;1.50;;;25.60;43.20;;;;;;6122693;29;20067;-79
2023/07/22 06:54:51;;;;;;;5.30;1.92;;;25.70;43.10;;;;;;6121030;29;20153;-78
2023/07/22 06:58:05;;;;;;;2.05;1.33;;;25.80;43.10;;;;;;6118983;29;20110;-80
2023/07/22 07:01:10;;;;;;;4.25;1.70;;;25.80;43.00;;;;;;6117823;29;20432;-81
2023/07/22 07:04:13;;;;;;;3.60;1.75;;;25.90;42.80;;;;;;6138644;29;20032;-79
2023/07/22 07:07:18;;;;;;;5.70;1.50;;;25.90;42.70;;;;;;6125853;29;20352;-79
2023/07/22 07:10:24;;;;;;;2.85;1.88;;;25.70;42.50;;;;;;6142275;29;20039;-78
2023/07/22 07:13:25;;;;;;;4.78;1.83;;;26.00;42.50;;;;;;6143615;29;20082;-79
2023/07/22 07:16:31;;;;;;;3.25;1.83;;;26.10;42.50;;;;;;6143047;29;20039;-79
2023/07/22 07:19:34;;;;;;;6.28;2.30;;;26.20;42.20;;;;;;6128414;29;20043;-78
2023/07/22 07:23:20;;;;;;;2.97;1.70;;;26.20;42.00;;;;;;6130361;29;20082;-79
2023/07/22 07:26:36;;;;;;;10.55;2.08;;;26.20;41.90;;;;;;6104655;29;20158;-78
2023/07/22 07:29:40;;;;;;;4.18;1.73;;;26.20;41.80;;;;;;6103790;29;20028;-79
2023/07/22 07:32:41;;;;;;;4.00;1.80;;;25.70;41.40;;;;;;6121494;29;20035;-79
2023/07/22 07:35:48;;;;;;;2.72;1.80;;;26.20;41.60;;;;;;6123710;29;20039;-78
2023/07/22 07:38:54;;;;;;;6.88;2.08;;;26.40;41.60;;;;;;6122794;29;20456;-79
2023/07/22 07:42:03;;;;;;;2.95;2.17;;;26.40;41.40;;;;;;6124426;29;20040;-77
2023/07/22 07:45:14;;;;;;;3.95;1.92;;;26.70;41.30;;;;;;6114639;29;20051;-78
2023/07/22 07:48:15;;;;;;;3.60;2.08;;;26.80;41.10;;;;;;6116608;29;20048;-79
2023/07/22 07:51:31;;;;;;;6.32;1.92;;;27.00;40.70;;;;;;6134048;29;20059;-79
2023/07/22 07:54:34;;;;;;;3.42;1.88;;;27.10;40.50;;;;;;6132895;29;20035;-79
2023/07/22 07:57:42;;;;;;;4.78;1.85;;;27.30;40.20;;;;;;6133742;29;20034;-79
2023/07/22 08:00:44;;;;;;;4.70;1.60;;;27.40;40.10;;;;;;6100275;29;20058;-80
2023/07/22 08:03:46;;;;;;;2.90;1.90;;;27.50;39.60;;;;;;6133217;29;20031;-78
2023/07/22 08:06:58;;;;;;;7.20;1.98;;;27.50;39.30;;;;;;6117318;29;20024;-80
2023/07/22 08:10:14;;;;;;;6.47;1.73;;;27.40;39.30;;;;;;6117999;29;20063;-79
2023/07/22 08:13:26;;;;;;;4.93;1.95;;;27.10;39.10;;;;;;6133592;29;20086;-80
2023/07/22 08:17:09;;;;;;;2.00;1.60;;;27.60;39.20;;;;;;6116560;29;20039;-79
2023/07/22 08:20:21;;;;;;;4.72;1.90;;;27.80;39.10;;;;;;6115072;29;20103;-78
2023/07/22 08:23:30;;;;;;;14.48;2.10;;;28.10;38.80;;;;;;6115178;29;20110;-80
2023/07/22 08:27:07;;;;;;;3.55;1.67;;;28.10;38.20;;;;;;6113646;29;20075;-78
2023/07/22 08:30:39;;;;;;;6.00;1.55;;;28.20;38.10;;;;;;5957398;29;20145;-78
2023/07/22 08:34:20;;;;;;;;;;;;;;;;;;;;;
2023/07/22 08:37:50;;;;;;;3.60;2.05;;;28.40;37.50;;;;;;5970305;29;20039;-80
2023/07/22 08:40:57;;;;;;;3.03;1.65;;;28.60;37.20;;;;;;5970652;29;20057;-80
2023/07/22 08:44:10;;;;;;;4.35;2.17;;;28.70;37.00;;;;;;5971522;29;20133;-80
2023/07/22 08:47:30;;;;;;;4.75;1.95;;;28.80;36.60;;;;;;5972711;29;20231;-80
2023/07/22 08:50:36;;;;;;;3.53;1.80;;;28.90;36.40;;;;;;5972488;29;20373;-79
2023/07/22 08:53:38;;;;;;;7.30;1.98;;;29.00;36.10;;;;;;5971788;29;20112;-78
2023/07/22 08:56:40;;;;;;;3.00;1.75;;;29.00;35.90;;;;;;5970626;29;20051;-79
2023/07/22 08:59:42;;;;;;;4.82;2.17;;;29.10;35.70;;;;;;5942928;29;20484;-80
2023/07/22 09:02:43;;;;;;;8.77;2.15;;;29.10;35.40;;;;;;5948318;29;20058;-80
2023/07/22 09:05:51;;;;;;;4.00;2.00;;;29.20;35.50;;;;;;5954538;29;20066;-81
2023/07/22 09:08:58;;;;;;;3.17;1.92;;;29.40;35.30;;;;;;6085548;29;20072;-81
2023/07/22 09:12:07;;;;;;;4.20;1.40;;;29.50;35.00;;;;;;6067819;29;20060;-80
2023/07/22 09:15:24;;;;;;;3.30;1.67;;;29.60;34.90;;;;;;6080724;29;20069;-80
2023/07/22 09:18:27;;;;;;;3.55;1.85;;;29.80;34.60;;;;;;6080158;29;20068;-79
2023/07/22 09:21:36;;;;;;;1.70;1.23;;;29.80;34.40;;;;;;6062490;29;20048;-80
2023/07/22 09:24:46;;;;;;;6.57;1.67;;;29.90;34.20;;;;;;6066867;29;20044;-79
2023/07/22 09:28:01;;;;;;;2.92;1.85;;;29.90;33.60;;;;;;6067368;29;20052;-79
2023/07/22 09:31:13;;;;;;;2.70;1.80;;;29.90;33.10;;;;;;6067819;29;20072;-79
2023/07/22 09:34:19;;;;;;;3.35;1.58;;;30.00;32.70;;;;;;6065993;29;20100;-78
2023/07/22 09:37:37;;;;;;;3.90;1.27;;;30.00;32.40;;;;;;6083062;29;20051;-78
2023/07/22 09:40:40;;;;;;;2.03;1.40;;;30.00;32.20;;;;;;6137915;29;20051;-79
2023/07/22 09:43:48;;;;;;;2.80;1.65;;;30.10;32.00;;;;;;6100993;29;20036;-78
2023/07/22 09:46:55;;;;;;;2.00;1.37;;;30.30;32.00;;;;;;6096363;29;20044;-79
2023/07/22 09:50:06;;;;;;;1.88;1.10;;;30.40;31.50;;;;;;6096132;29;20044;-80
2023/07/22 09:53:18;;;;;;;2.85;1.33;;;30.40;31.40;;;;;;6097819;29;20036;-78
2023/07/22 09:56:44;;;;;;;1.98;1.30;;;30.70;31.40;;;;;;6096103;29;20028;-78
2023/07/22 09:59:48;;;;;;;6.13;1.80;;;30.40;31.10;;;;;;6096597;29;20052;-80
2023/07/22 10:02:50;;;;;;;2.22;1.52;;;30.40;30.90;;;;;;6114719;29;20044;-77
2023/07/22 10:06:08;;;;;;;4.05;1.60;;;30.40;30.50;;;;;;6098976;29;20036;-78
2023/07/22 10:09:13;;;;;;;7.95;1.50;;;30.60;30.30;;;;;;6098648;29;20040;-78
2023/07/22 10:12:15;;;;;;;4.28;1.85;;;30.80;30.20;;;;;;6113394;29;20412;-79
2023/07/22 10:15:27;;;;;;;5.30;2.22;;;31.00;30.20;;;;;;6112361;29;20032;-79
2023/07/22 10:18:48;;;;;;;2.30;1.17;;;30.90;29.80;;;;;;6096714;29;20095;-81
2023/07/22 10:21:54;;;;;;;3.33;1.60;;;30.60;29.70;;;;;;6116325;29;20039;-78
2023/07/22 10:25:09;;;;;;;1.77;1.30;;;30.90;30.00;;;;;;6133064;29;20067;-79
2023/07/22 10:28:12;;;;;;;3.38;1.70;;;31.00;30.00;;;;;;6121169;29;20031;-81
2023/07/22 10:31:18;;;;;;;3.17;1.20;;;31.00;30.00;;;;;;6123239;29;20063;-81
2023/07/22 10:34:24;;;;;;;1.95;1.35;;;31.10;30.00;;;;;;6140797;29;20066;-81
2023/07/22 10:37:41;;;;;;;3.65;1.35;;;31.10;29.80;;;;;;6108345;29;20357;-80
2023/07/22 10:40:54;;;;;;;2.60;1.55;;;31.20;30.00;;;;;;6121759;29;20054;-80
2023/07/22 10:44:00;;;;;;;2.75;1.60;;;31.10;30.00;;;;;;6122775;29;20476;-80
2023/07/22 10:47:03;;;;;;;3.92;1.63;;;31.10;29.90;;;;;;6121963;29;20073;-81
2023/07/22 10:50:07;;;;;;;2.70;1.17;;;31.20;29.70;;;;;;6138708;29;20046;-80
2023/07/22 10:53:18;;;;;;;1.77;1.38;;;31.50;29.70;;;;;;6122212;29;20047;-80
2023/07/22 10:56:21;;;;;;;3.22;1.67;;;31.50;29.50;;;;;;6121095;29;20031;-80
2023/07/22 10:59:27;;;;;;;2.40;1.40;;;31.60;29.80;;;;;;6121374;29;20028;-80
2023/07/22 11:02:29;;;;;;;10.13;1.40;;;31.60;29.10;;;;;;6122286;29;20051;-80
2023/07/22 11:05:48;;;;;;;4.63;1.60;;;31.80;29.00;;;;;;6121311;29;20066;-80
2023/07/22 11:08:49;;;;;;;2.92;1.50;;;32.00;28.60;;;;;;6121624;29;20082;-80
2023/07/22 11:11:50;;;;;;;1.60;1.45;;;32.70;28.00;;;;;;6114528;29;20099;-79
2023/07/22 11:14:52;;;;;;;5.97;1.80;;;32.80;27.50;;;;;;6134938;29;20107;-79
2023/07/22 11:17:54;;;;;;;3.95;1.90;;;33.20;27.30;;;;;;6121980;29;20032;-78
2023/07/22 11:20:55;;;;;;;3.72;1.48;;;33.70;27.00;;;;;;6122135;29;20031;-78
2023/07/22 11:23:55;;;;;;;2.17;1.40;;;34.10;26.60;;;;;;6137416;29;20027;-79
2023/07/22 11:27:04;;;;;;;3.03;1.73;;;34.60;26.10;;;;;;6104349;29;20035;-79
2023/07/22 11:30:11;;;;;;;2.25;1.40;;;34.90;25.70;;;;;;6135948;29;20043;-79
2023/07/22 11:33:14;;;;;;;2.15;1.38;;;35.30;25.50;;;;;;6116498;29;20130;-79
2023/07/22 11:36:19;;;;;;;1.98;1.30;;;35.60;25.30;;;;;;6116877;29;20028;-78
2023/07/22 11:39:21;;;;;;;3.03;1.48;;;35.90;24.90;;;;;;6117133;29;20099;-79
2023/07/22 11:42:24;;;;;;;1.15;1.05;;;36.00;24.60;;;;;;6119853;29;20130;-78
2023/07/22 11:45:24;;;;;;;2.72;1.10;;;36.10;24.30;;;;;;6121137;29;20044;-80
2023/07/22 11:48:25;;;;;;;1.17;0.88;;;36.10;24.00;;;;;;6122724;29;20064;-78
2023/07/22 11:51:26;;;;;;;2.42;1.30;;;36.10;23.70;;;;;;6160652;29;20071;-79
2023/07/22 11:54:29;;;;;;;1.50;0.90;;;36.20;23.60;;;;;;6116926;29;20530;-79
2023/07/22 11:57:29;;;;;;;2.42;1.15;;;36.30;23.50;;;;;;6114308;29;20104;-78
2023/07/22 12:00:33;;;;;;;2.03;1.13;;;36.60;23.30;;;;;;6116539;29;20031;-79
2023/07/22 12:03:34;;;;;;;2.67;1.00;;;36.90;22.90;;;;;;6129716;29;20127;-78
2023/07/22 12:06:35;;;;;;;1.55;1.00;;;37.30;22.60;;;;;;6118072;29;20031;-78
2023/07/22 12:09:35;;;;;;;2.35;1.65;;;37.60;22.30;;;;;;6117588;29;20408;-77
2023/07/22 12:12:49;;;;;;;1.92;1.00;;;37.90;22.00;;;;;;6132831;29;20031;-77
2023/07/22 12:16:04;;;;;;;1.73;1.10;;;38.00;21.70;;;;;;6113326;29;20036;-77
2023/07/22 12:19:06;;;;;;;1.15;0.82;;;38.20;21.60;;;;;;6128792;29;20027;-79
2023/07/22 12:22:07;;;;;;;2.10;1.02;;;38.60;21.30;;;;;;6128791;29;20067;-78
2023/07/22 12:25:08;;;;;;;1.10;0.80;;;39.10;21.00;;;;;;6112070;29;20164;-78
2023/07/22 12:28:10;;;;;;;2.72;1.10;;;39.40;20.50;;;;;;6114442;29;20039;-79
2023/07/22 12:31:11;;;;;;;0.90;0.82;;;39.60;20.20;;;;;;6113517;29;20050;-79
2023/07/22 12:34:12;;;;;;;1.05;0.95;;;39.80;20.00;;;;;;6114823;29;20039;-79
2023/07/22 12:37:13;;;;;;;1.17;0.98;;;40.20;19.80;;;;;;6114487;29;20039;-79
2023/07/22 12:40:14;;;;;;;2.47;1.45;;;40.50;19.40;;;;;;6133171;29;20039;-78
2023/07/22 12:43:15;;;;;;;1.02;0.88;;;40.60;19.30;;;;;;6114693;29;20042;-79
2023/07/22 12:46:16;;;;;;;2.22;1.10;;;40.90;19.20;;;;;;6130319;28;20396;-79
2023/07/22 12:49:17;;;;;;;2.85;0.60;;;41.10;19.00;;;;;;6154206;29;20023;-78
2023/07/22 12:52:18;;;;;;;2.97;1.20;;;41.50;18.80;;;;;;6129476;29;20095;-79
2023/07/22 12:55:19;;;;;;;1.13;0.95;;;41.70;18.40;;;;;;6129698;29;20131;-78
2023/07/22 12:58:20;;;;;;;1.70;0.90;;;41.80;18.10;;;;;;6097277;29;20112;-78
2023/07/22 13:01:21;;;;;;;1.27;0.88;;;42.00;17.90;;;;;;6113976;29;20047;-79
2023/07/22 13:04:24;;;;;;;3.30;0.98;;;42.20;17.80;;;;;;6127713;29;20079;-79
2023/07/22 13:07:25;;;;;;;4.82;1.00;;;42.30;17.60;;;;;;6113420;29;20039;-79
2023/07/22 13:10:26;;;;;;;1.40;1.00;;;42.30;17.50;;;;;;6130667;29;20050;-79
2023/07/22 13:13:26;;;;;;;1.63;1.17;;;42.40;17.30;;;;;;6114197;29;20055;-79
2023/07/22 13:16:27;;;;;;;1.45;1.10;;;42.60;17.10;;;;;;6130354;29;20035;-80
2023/07/22 13:19:28;;;;;;;1.30;1.05;;;42.50;17.10;;;;;;6112337;29;20095;-78
2023/07/22 13:22:29;;;;;;;1.90;1.20;;;42.60;17.10;;;;;;6131583;29;20658;-79
2023/07/22 13:25:30;;;;;;;0.90;0.73;;;42.80;16.80;;;;;;6112690;29;20039;-79
2023/07/22 13:28:31;;;;;;;3.03;0.90;;;43.00;16.50;;;;;;6114487;29;20432;-79
2023/07/22 13:31:32;;;;;;;0.80;0.70;;;43.40;16.20;;;;;;6115529;29;20076;-80
2023/07/22 13:34:33;;;;;;;1.52;0.95;;;43.50;16.10;;;;;;6116211;29;20024;-80
2023/07/22 13:37:33;;;;;;;0.98;0.82;;;43.60;16.10;;;;;;6129547;29;20032;-79
2023/07/22 13:40:34;;;;;;;0.88;0.80;;;44.00;15.80;;;;;;6112394;29;20055;-80
2023/07/22 13:43:35;;;;;;;1.38;1.00;;;44.40;15.60;;;;;;6137766;29;20402;-79
2023/07/22 13:46:36;;;;;;;1.05;0.88;;;44.50;15.40;;;;;;6153255;28;20149;-81
2023/07/22 13:49:37;;;;;;;2.40;0.95;;;44.60;15.40;;;;;;6153199;28;20426;-81
2023/07/22 13:52:37;;;;;;;1.00;0.90;;;44.80;15.30;;;;;;6136041;29;20053;-79
2023/07/22 13:55:38;;;;;;;2.88;1.02;;;45.20;15.20;;;;;;6153531;28;20065;-78
2023/07/22 13:58:39;;;;;;;1.10;0.80;;;45.50;14.90;;;;;;6135878;29;20076;-79
2023/07/22 14:01:40;;;;;;;0.80;0.80;;;45.60;14.70;;;;;;6118259;28;20031;-79
2023/07/22 14:04:41;;;;;;;1.55;0.93;;;45.60;14.70;;;;;;6133566;29;20038;-79
2023/07/22 14:07:42;;;;;;;1.75;0.77;;;45.80;14.70;;;;;;6135769;29;20035;-79
2023/07/22 14:10:43;;;;;;;2.00;1.08;;;45.80;14.60;;;;;;6136619;29;20242;-79
2023/07/22 14:13:44;;;;;;;1.27;1.08;;;45.80;14.50;;;;;;6136235;29;20043;-79
2023/07/22 14:16:44;;;;;;;2.50;1.63;;;45.60;14.50;;;;;;6137721;29;20039;-79
2023/07/22 14:19:45;;;;;;;4.28;1.08;;;45.40;14.50;;;;;;6139069;29;20070;-78
2023/07/22 14:22:49;;;;;;;1.02;0.82;;;45.20;14.60;;;;;;6099283;29;20048;-79
2023/07/22 14:25:50;;;;;;;1.60;1.00;;;45.10;14.70;;;;;;6089549;29;20131;-78
2023/07/22 14:28:51;;;;;;;1.20;0.90;;;45.00;14.70;;;;;;6110491;29;20048;-80
2023/07/22 14:31:52;;;;;;;0.90;0.80;;;44.70;14.70;;;;;;6097403;29;20091;-78
2023/07/22 14:34:53;;;;;;;2.95;0.98;;;44.50;14.70;;;;;;6096398;29;20043;-79
2023/07/22 14:37:54;;;;;;;7.53;1.05;;;44.00;14.80;;;;;;6111825;29;20059;-79
2023/07/22 14:40:55;;;;;;;8.88;1.17;;;43.70;15.10;;;;;;6091177;29;20043;-80
2023/07/22 14:43:55;;;;;;;1.48;1.10;;;43.40;15.20;;;;;;6133554;29;20048;-79
2023/07/22 14:46:56;;;;;;;1.92;1.20;;;43.50;15.30;;;;;;6133168;29;20114;-80
2023/07/22 14:49:57;;;;;;;2.70;1.35;;;43.60;15.30;;;;;;6117928;29;20042;-81
2023/07/22 14:52:58;;;;;;;2.90;0.80;;;43.80;15.20;;;;;;6137980;29;20453;-81
2023/07/22 14:55:59;;;;;;;1.23;1.13;;;44.10;15.00;;;;;;6133653;29;20082;-81
2023/07/22 14:59:00;;;;;;;2.08;1.20;;;44.10;14.90;;;;;;6113339;29;20463;-79
2023/07/22 15:02:01;;;;;;;1.48;1.08;;;44.10;15.00;;;;;;6134451;29;20404;-79
2023/07/22 15:05:02;;;;;;;1.10;1.00;;;44.00;15.00;;;;;;6119349;29;20457;-81
2023/07/22 15:08:03;;;;;;;2.45;1.30;;;43.40;15.10;;;;;;6136696;29;20031;-81
2023/07/22 15:11:04;;;;;;;1.42;1.30;;;42.30;15.80;;;;;;6119477;29;20046;-81
2023/07/22 15:14:05;;;;;;;3.63;1.10;;;41.10;16.60;;;;;;6119878;29;20448;-79
2023/07/22 15:17:06;;;;;;;2.65;1.15;;;40.10;17.40;;;;;;6135573;29;20024;-79
2023/07/22 15:20:07;;;;;;;1.08;0.88;;;39.30;18.00;;;;;;6137711;29;20039;-80
2023/07/22 15:23:08;;;;;;;5.40;1.10;;;38.50;18.60;;;;;;6119516;29;20043;-79
2023/07/22 15:26:09;;;;;;;18.50;1.50;;;37.90;19.20;;;;;;6132832;29;20428;-79
2023/07/22 15:29:10;;;;;;;1.17;1.00;;;37.90;19.10;;;;;;6114372;29;20118;-79
2023/07/22 15:32:12;;;;;;;1.48;1.00;;;38.50;18.70;;;;;;6132760;29;20056;-80
2023/07/22 15:35:14;;;;;;;1.40;0.90;;;39.10;18.40;;;;;;6138005;28;20027;-79
2023/07/22 15:38:15;;;;;;;1.73;1.10;;;39.60;18.10;;;;;;6159640;28;20039;-80
2023/07/22 15:41:16;;;;;;;1.55;1.13;;;40.00;17.70;;;;;;6140951;29;20054;-83
2023/07/22 15:44:17;;;;;;;2.55;1.05;;;40.50;17.50;;;;;;6116712;29;20126;-79
2023/07/22 15:47:18;;;;;;;1.42;0.80;;;40.80;17.30;;;;;;6118049;29;20046;-82
2023/07/22 15:50:18;;;;;;;1.80;1.00;;;40.90;17.10;;;;;;6135706;29;20043;-82
2023/07/22 15:53:19;;;;;;;3.72;1.15;;;41.00;17.10;;;;;;6121382;29;20036;-81
2023/07/22 15:56:20;;;;;;;2.55;1.15;;;40.90;17.30;;;;;;6133480;29;20058;-82
2023/07/22 15:59:21;;;;;;;1.70;1.00;;;40.90;17.20;;;;;;6136363;29;20027;-80
2023/07/22 16:02:21;;;;;;;1.42;0.80;;;41.00;17.20;;;;;;6103315;29;20035;-80
2023/07/22 16:05:22;;;;;;;1.05;0.95;;;41.00;17.20;;;;;;6119612;29;20130;-80